sensor_id;sensor_type;location;lat;lon;timestamp;P1;durP1;ratioP1;P2;durP2;ratioP2
11817;SDS011;5966;52.402;5.322;2023-01-16T00:00:32;5.17;;;2.10;;
11817;SDS011;5966;52.402;5.322;2023-01-16T00:02:59;4.97;;;1.60;;
11817;SDS011;5966;52.402;5.322;2023-01-16T00:05:27;3.50;;;1.43;;
11817;SDS011;5966;52.402;5.322;2023-01-16T00:07:55;4.40;;;1.93;;
11817;SDS011;5966;52.402;5.322;2023-01-16T00:10:23;2.63;;;1.80;;
11817;SDS011;5966;52.402;5.322;2023-01-16T00:12:52;4.93;;;2.33;;
11817;SDS011;5966;52.402;5.322;2023-01-16T00:15:20;4.97;;;2.27;;
11817;SDS011;5966;52.402;5.322;2023-01-16T00:17:48;6.00;;;2.20;;
11817;SDS011;5966;52.402;5.322;2023-01-16T00:20:16;6.47;;;2.80;;
11817;SDS011;5966;52.402;5.322;2023-01-16T00:22:44;6.77;;;2.53;;
11817;SDS011;5966;52.402;5.322;2023-01-16T00:25:12;3.50;;;2.40;;
11817;SDS011;5966;52.402;5.322;2023-01-16T00:27:40;3.67;;;2.00;;
11817;SDS011;5966;52.402;5.322;2023-01-16T00:30:10;6.40;;;2.60;;
11817;SDS011;5966;52.402;5.322;2023-01-16T00:32:38;6.10;;;2.43;;
11817;SDS011;5966;52.402;5.322;2023-01-16T00:35:07;2.80;;;2.03;;
11817;SDS011;5966;52.402;5.322;2023-01-16T00:37:35;3.47;;;2.40;;
11817;SDS011;5966;52.402;5.322;2023-01-16T00:40:03;3.67;;;2.60;;
11817;SDS011;5966;52.402;5.322;2023-01-16T00:42:32;3.03;;;2.20;;
11817;SDS011;5966;52.402;5.322;2023-01-16T00:45:00;4.40;;;2.97;;
11817;SDS011;5966;52.402;5.322;2023-01-16T00:47:29;3.20;;;2.30;;
11817;SDS011;5966;52.402;5.322;2023-01-16T00:49:57;3.97;;;2.40;;
11817;SDS011;5966;52.402;5.322;2023-01-16T00:52:25;3.70;;;2.47;;
11817;SDS011;5966;52.402;5.322;2023-01-16T00:54:53;5.13;;;2.53;;
11817;SDS011;5966;52.402;5.322;2023-01-16T00:57:21;3.23;;;2.00;;
11817;SDS011;5966;52.402;5.322;2023-01-16T00:59:49;2.40;;;2.20;;
11817;SDS011;5966;52.402;5.322;2023-01-16T01:02:17;4.97;;;3.10;;
11817;SDS011;5966;52.402;5.322;2023-01-16T01:04:47;5.47;;;2.53;;
11817;SDS011;5966;52.402;5.322;2023-01-16T01:07:15;3.57;;;2.10;;
11817;SDS011;5966;52.402;5.322;2023-01-16T01:09:43;3.87;;;2.80;;
11817;SDS011;5966;52.402;5.322;2023-01-16T01:12:11;3.70;;;2.10;;
11817;SDS011;5966;52.402;5.322;2023-01-16T01:14:39;3.10;;;2.53;;
11817;SDS011;5966;52.402;5.322;2023-01-16T01:17:07;3.67;;;2.20;;
11817;SDS011;5966;52.402;5.322;2023-01-16T01:19:35;3.67;;;2.57;;
11817;SDS011;5966;52.402;5.322;2023-01-16T01:22:05;4.80;;;2.67;;
11817;SDS011;5966;52.402;5.322;2023-01-16T01:24:33;4.03;;;2.80;;
11817;SDS011;5966;52.402;5.322;2023-01-16T01:27:01;4.90;;;3.03;;
11817;SDS011;5966;52.402;5.322;2023-01-16T01:29:29;3.43;;;3.10;;
11817;SDS011;5966;52.402;5.322;2023-01-16T01:31:56;3.53;;;3.13;;
11817;SDS011;5966;52.402;5.322;2023-01-16T01:34:24;3.87;;;3.50;;
11817;SDS011;5966;52.402;5.322;2023-01-16T01:36:52;3.37;;;3.07;;
11817;SDS011;5966;52.402;5.322;2023-01-16T01:39:22;4.13;;;3.20;;
11817;SDS011;5966;52.402;5.322;2023-01-16T01:41:50;4.83;;;3.97;;
11817;SDS011;5966;52.402;5.322;2023-01-16T01:44:49;4.70;;;3.80;;
11817;SDS011;5966;52.402;5.322;2023-01-16T01:47:20;6.63;;;3.97;;
11817;SDS011;5966;52.402;5.322;2023-01-16T01:49:53;5.83;;;3.60;;
11817;SDS011;5966;52.402;5.322;2023-01-16T01:52:24;4.90;;;3.93;;
11817;SDS011;5966;52.402;5.322;2023-01-16T01:54:55;6.50;;;4.00;;
11817;SDS011;5966;52.402;5.322;2023-01-16T01:57:30;7.17;;;4.50;;
11817;SDS011;5966;52.402;5.322;2023-01-16T02:00:03;5.67;;;4.37;;
11817;SDS011;5966;52.402;5.322;2023-01-16T02:02:34;9.67;;;5.43;;
11817;SDS011;5966;52.402;5.322;2023-01-16T02:05:05;6.53;;;5.20;;
11817;SDS011;5966;52.402;5.322;2023-01-16T02:07:35;6.77;;;5.43;;
11817;SDS011;5966;52.402;5.322;2023-01-16T02:10:08;6.37;;;5.43;;
11817;SDS011;5966;52.402;5.322;2023-01-16T02:12:41;6.30;;;5.50;;
11817;SDS011;5966;52.402;5.322;2023-01-16T02:15:09;8.50;;;5.20;;
11817;SDS011;5966;52.402;5.322;2023-01-16T02:17:42;7.40;;;5.57;;
11817;SDS011;5966;52.402;5.322;2023-01-16T02:20:28;8.53;;;5.30;;
11817;SDS011;5966;52.402;5.322;2023-01-16T02:26:30;11.30;;;5.10;;
11817;SDS011;5966;52.402;5.322;2023-01-16T02:29:15;7.80;;;5.10;;
11817;SDS011;5966;52.402;5.322;2023-01-16T02:32:13;8.30;;;5.40;;
11817;SDS011;5966;52.402;5.322;2023-01-16T02:34:53;5.83;;;4.70;;
11817;SDS011;5966;52.402;5.322;2023-01-16T02:37:45;8.80;;;4.70;;
11817;SDS011;5966;52.402;5.322;2023-01-16T02:40:22;7.90;;;5.30;;
11817;SDS011;5966;52.402;5.322;2023-01-16T02:43:02;7.40;;;4.93;;
11817;SDS011;5966;52.402;5.322;2023-01-16T02:45:39;7.47;;;5.10;;
11817;SDS011;5966;52.402;5.322;2023-01-16T02:48:17;5.13;;;4.47;;
11817;SDS011;5966;52.402;5.322;2023-01-16T02:50:55;6.63;;;5.07;;
11817;SDS011;5966;52.402;5.322;2023-01-16T02:53:28;6.37;;;4.63;;
11817;SDS011;5966;52.402;5.322;2023-01-16T02:56:02;5.30;;;4.53;;
11817;SDS011;5966;52.402;5.322;2023-01-16T02:58:35;9.00;;;4.97;;
11817;SDS011;5966;52.402;5.322;2023-01-16T03:01:09;8.10;;;4.93;;
11817;SDS011;5966;52.402;5.322;2023-01-16T03:03:40;9.00;;;4.87;;
11817;SDS011;5966;52.402;5.322;2023-01-16T03:06:14;8.57;;;4.80;;
11817;SDS011;5966;52.402;5.322;2023-01-16T03:08:56;8.57;;;4.40;;
11817;SDS011;5966;52.402;5.322;2023-01-16T03:11:36;5.77;;;4.40;;
11817;SDS011;5966;52.402;5.322;2023-01-16T03:14:16;5.43;;;4.57;;
11817;SDS011;5966;52.402;5.322;2023-01-16T03:16:59;5.10;;;4.60;;
11817;SDS011;5966;52.402;5.322;2023-01-16T03:19:44;6.93;;;5.00;;
11817;SDS011;5966;52.402;5.322;2023-01-16T03:22:23;7.77;;;5.33;;
11817;SDS011;5966;52.402;5.322;2023-01-16T03:25:02;6.97;;;5.20;;
11817;SDS011;5966;52.402;5.322;2023-01-16T03:27:42;6.50;;;4.47;;
11817;SDS011;5966;52.402;5.322;2023-01-16T03:30:19;6.60;;;4.80;;
11817;SDS011;5966;52.402;5.322;2023-01-16T03:32:54;7.37;;;4.80;;
11817;SDS011;5966;52.402;5.322;2023-01-16T03:35:29;6.97;;;4.87;;
11817;SDS011;5966;52.402;5.322;2023-01-16T03:38:01;6.37;;;4.60;;
11817;SDS011;5966;52.402;5.322;2023-01-16T03:40:32;7.40;;;4.80;;
11817;SDS011;5966;52.402;5.322;2023-01-16T03:43:05;5.07;;;4.27;;
11817;SDS011;5966;52.402;5.322;2023-01-16T03:45:38;5.27;;;4.23;;
11817;SDS011;5966;52.402;5.322;2023-01-16T03:48:09;6.97;;;4.50;;
11817;SDS011;5966;52.402;5.322;2023-01-16T03:50:42;6.07;;;3.90;;
11817;SDS011;5966;52.402;5.322;2023-01-16T03:53:18;7.37;;;4.27;;
11817;SDS011;5966;52.402;5.322;2023-01-16T03:55:50;6.20;;;3.80;;
11817;SDS011;5966;52.402;5.322;2023-01-16T03:58:24;5.83;;;3.60;;
11817;SDS011;5966;52.402;5.322;2023-01-16T04:00:58;6.97;;;3.47;;
11817;SDS011;5966;52.402;5.322;2023-01-16T04:03:39;3.47;;;2.90;;
11817;SDS011;5966;52.402;5.322;2023-01-16T04:06:13;7.97;;;3.13;;
11817;SDS011;5966;52.402;5.322;2023-01-16T04:08:44;7.40;;;3.10;;
11817;SDS011;5966;52.402;5.322;2023-01-16T04:11:14;2.90;;;2.60;;
11817;SDS011;5966;52.402;5.322;2023-01-16T04:13:46;4.53;;;2.17;;
11817;SDS011;5966;52.402;5.322;2023-01-16T04:16:18;3.83;;;1.97;;
11817;SDS011;5966;52.402;5.322;2023-01-16T04:18:48;3.70;;;2.33;;
11817;SDS011;5966;52.402;5.322;2023-01-16T04:21:20;3.73;;;2.40;;
11817;SDS011;5966;52.402;5.322;2023-01-16T04:23:54;4.23;;;1.90;;
11817;SDS011;5966;52.402;5.322;2023-01-16T04:26:23;4.00;;;2.07;;
11817;SDS011;5966;52.402;5.322;2023-01-16T04:28:52;4.20;;;1.90;;
11817;SDS011;5966;52.402;5.322;2023-01-16T04:31:22;4.83;;;1.93;;
11817;SDS011;5966;52.402;5.322;2023-01-16T04:33:50;2.63;;;1.60;;
11817;SDS011;5966;52.402;5.322;2023-01-16T04:36:20;4.33;;;1.60;;
11817;SDS011;5966;52.402;5.322;2023-01-16T04:38:49;3.80;;;1.70;;
11817;SDS011;5966;52.402;5.322;2023-01-16T04:41:17;3.57;;;1.77;;
11817;SDS011;5966;52.402;5.322;2023-01-16T04:44:02;2.50;;;1.40;;
11817;SDS011;5966;52.402;5.322;2023-01-16T04:46:31;5.00;;;2.20;;
11817;SDS011;5966;52.402;5.322;2023-01-16T04:48:59;2.07;;;1.60;;
11817;SDS011;5966;52.402;5.322;2023-01-16T04:51:28;3.30;;;1.70;;
11817;SDS011;5966;52.402;5.322;2023-01-16T04:53:56;6.13;;;1.50;;
11817;SDS011;5966;52.402;5.322;2023-01-16T04:56:24;3.70;;;1.47;;
11817;SDS011;5966;52.402;5.322;2023-01-16T04:58:52;2.00;;;1.57;;
11817;SDS011;5966;52.402;5.322;2023-01-16T05:01:21;4.33;;;1.70;;
11817;SDS011;5966;52.402;5.322;2023-01-16T05:03:49;4.33;;;1.70;;
11817;SDS011;5966;52.402;5.322;2023-01-16T05:06:17;4.00;;;1.60;;
11817;SDS011;5966;52.402;5.322;2023-01-16T05:08:47;9.53;;;3.10;;
11817;SDS011;5966;52.402;5.322;2023-01-16T05:11:14;3.00;;;1.83;;
11817;SDS011;5966;52.402;5.322;2023-01-16T05:13:42;4.50;;;2.10;;
11817;SDS011;5966;52.402;5.322;2023-01-16T05:16:10;4.53;;;1.77;;
11817;SDS011;5966;52.402;5.322;2023-01-16T05:18:38;4.20;;;1.70;;
11817;SDS011;5966;52.402;5.322;2023-01-16T05:21:06;3.57;;;1.80;;
11817;SDS011;5966;52.402;5.322;2023-01-16T05:23:34;3.97;;;1.37;;
11817;SDS011;5966;52.402;5.322;2023-01-16T05:26:05;4.37;;;1.67;;
11817;SDS011;5966;52.402;5.322;2023-01-16T05:28:33;2.70;;;1.23;;
11817;SDS011;5966;52.402;5.322;2023-01-16T05:31:02;2.37;;;1.20;;
11817;SDS011;5966;52.402;5.322;2023-01-16T05:33:30;5.00;;;1.60;;
11817;SDS011;5966;52.402;5.322;2023-01-16T05:35:58;7.80;;;1.63;;
11817;SDS011;5966;52.402;5.322;2023-01-16T05:38:26;4.93;;;1.67;;
11817;SDS011;5966;52.402;5.322;2023-01-16T05:40:54;2.17;;;1.07;;
11817;SDS011;5966;52.402;5.322;2023-01-16T05:43:24;3.20;;;1.30;;
11817;SDS011;5966;52.402;5.322;2023-01-16T05:45:52;4.60;;;1.37;;
11817;SDS011;5966;52.402;5.322;2023-01-16T05:48:20;2.73;;;1.47;;
11817;SDS011;5966;52.402;5.322;2023-01-16T05:50:50;3.27;;;1.50;;
11817;SDS011;5966;52.402;5.322;2023-01-16T05:53:18;1.27;;;1.07;;
11817;SDS011;5966;52.402;5.322;2023-01-16T05:55:46;3.67;;;1.30;;
11817;SDS011;5966;52.402;5.322;2023-01-16T05:58:15;4.53;;;1.30;;
11817;SDS011;5966;52.402;5.322;2023-01-16T06:00:44;2.43;;;1.20;;
11817;SDS011;5966;52.402;5.322;2023-01-16T06:03:12;4.87;;;1.57;;
11817;SDS011;5966;52.402;5.322;2023-01-16T06:05:41;3.13;;;1.70;;
11817;SDS011;5966;52.402;5.322;2023-01-16T06:08:10;2.70;;;1.20;;
11817;SDS011;5966;52.402;5.322;2023-01-16T06:10:37;3.43;;;1.43;;
11817;SDS011;5966;52.402;5.322;2023-01-16T06:13:05;4.30;;;1.37;;
11817;SDS011;5966;52.402;5.322;2023-01-16T06:15:33;2.60;;;1.03;;
11817;SDS011;5966;52.402;5.322;2023-01-16T06:18:02;2.67;;;1.10;;
11817;SDS011;5966;52.402;5.322;2023-01-16T06:20:30;4.33;;;1.30;;
11817;SDS011;5966;52.402;5.322;2023-01-16T06:22:58;2.87;;;1.43;;
11817;SDS011;5966;52.402;5.322;2023-01-16T06:25:26;4.63;;;1.50;;
11817;SDS011;5966;52.402;5.322;2023-01-16T06:27:54;4.10;;;1.47;;
11817;SDS011;5966;52.402;5.322;2023-01-16T06:30:22;3.10;;;1.30;;
11817;SDS011;5966;52.402;5.322;2023-01-16T06:32:50;3.83;;;1.60;;
11817;SDS011;5966;52.402;5.322;2023-01-16T06:35:20;3.33;;;1.30;;
11817;SDS011;5966;52.402;5.322;2023-01-16T06:37:48;4.40;;;1.10;;
11817;SDS011;5966;52.402;5.322;2023-01-16T06:40:16;3.90;;;1.30;;
11817;SDS011;5966;52.402;5.322;2023-01-16T06:42:44;6.17;;;1.50;;
11817;SDS011;5966;52.402;5.322;2023-01-16T06:45:12;3.07;;;1.10;;
11817;SDS011;5966;52.402;5.322;2023-01-16T06:47:40;6.10;;;1.50;;
11817;SDS011;5966;52.402;5.322;2023-01-16T06:50:09;3.80;;;1.23;;
11817;SDS011;5966;52.402;5.322;2023-01-16T06:52:38;2.93;;;1.50;;
11817;SDS011;5966;52.402;5.322;2023-01-16T06:55:07;3.70;;;1.43;;
11817;SDS011;5966;52.402;5.322;2023-01-16T06:57:35;3.10;;;1.10;;
11817;SDS011;5966;52.402;5.322;2023-01-16T07:00:04;4.97;;;1.40;;
11817;SDS011;5966;52.402;5.322;2023-01-16T07:02:32;3.90;;;1.63;;
11817;SDS011;5966;52.402;5.322;2023-01-16T07:05:06;4.13;;;1.43;;
11817;SDS011;5966;52.402;5.322;2023-01-16T07:07:35;3.30;;;1.30;;
11817;SDS011;5966;52.402;5.322;2023-01-16T07:10:05;2.87;;;1.30;;
11817;SDS011;5966;52.402;5.322;2023-01-16T07:12:33;2.23;;;1.23;;
11817;SDS011;5966;52.402;5.322;2023-01-16T07:15:01;4.53;;;1.27;;
11817;SDS011;5966;52.402;5.322;2023-01-16T07:17:46;4.33;;;1.53;;
11817;SDS011;5966;52.402;5.322;2023-01-16T07:20:31;2.07;;;1.23;;
11817;SDS011;5966;52.402;5.322;2023-01-16T07:23:18;2.97;;;1.03;;
11817;SDS011;5966;52.402;5.322;2023-01-16T07:25:49;1.60;;;0.90;;
11817;SDS011;5966;52.402;5.322;2023-01-16T07:28:18;4.33;;;1.33;;
11817;SDS011;5966;52.402;5.322;2023-01-16T07:30:46;2.07;;;1.30;;
11817;SDS011;5966;52.402;5.322;2023-01-16T07:33:15;3.07;;;1.40;;
11817;SDS011;5966;52.402;5.322;2023-01-16T07:35:43;3.43;;;1.07;;
11817;SDS011;5966;52.402;5.322;2023-01-16T07:38:11;3.57;;;1.10;;
11817;SDS011;5966;52.402;5.322;2023-01-16T07:40:39;2.83;;;1.30;;
11817;SDS011;5966;52.402;5.322;2023-01-16T07:43:09;2.80;;;1.10;;
11817;SDS011;5966;52.402;5.322;2023-01-16T07:45:37;1.50;;;0.90;;
11817;SDS011;5966;52.402;5.322;2023-01-16T07:48:05;5.67;;;1.20;;
11817;SDS011;5966;52.402;5.322;2023-01-16T07:50:33;2.80;;;1.23;;
11817;SDS011;5966;52.402;5.322;2023-01-16T07:53:01;4.40;;;1.37;;
11817;SDS011;5966;52.402;5.322;2023-01-16T07:55:28;5.00;;;1.67;;
11817;SDS011;5966;52.402;5.322;2023-01-16T07:57:56;3.00;;;1.13;;
11817;SDS011;5966;52.402;5.322;2023-01-16T08:00:26;2.17;;;1.10;;
11817;SDS011;5966;52.402;5.322;2023-01-16T08:02:54;1.67;;;1.00;;
11817;SDS011;5966;52.402;5.322;2023-01-16T08:05:22;2.00;;;1.07;;
11817;SDS011;5966;52.402;5.322;2023-01-16T08:07:49;3.43;;;1.03;;
11817;SDS011;5966;52.402;5.322;2023-01-16T08:10:17;1.63;;;0.83;;
11817;SDS011;5966;52.402;5.322;2023-01-16T08:12:45;6.10;;;1.33;;
11817;SDS011;5966;52.402;5.322;2023-01-16T08:15:13;2.40;;;1.10;;
11817;SDS011;5966;52.402;5.322;2023-01-16T08:17:43;1.53;;;1.00;;
11817;SDS011;5966;52.402;5.322;2023-01-16T08:20:11;1.80;;;1.07;;
11817;SDS011;5966;52.402;5.322;2023-01-16T08:22:42;2.40;;;1.20;;
11817;SDS011;5966;52.402;5.322;2023-01-16T08:25:11;1.93;;;1.40;;
11817;SDS011;5966;52.402;5.322;2023-01-16T08:27:39;2.80;;;1.30;;
11817;SDS011;5966;52.402;5.322;2023-01-16T08:30:08;4.37;;;1.60;;
11817;SDS011;5966;52.402;5.322;2023-01-16T08:32:37;2.07;;;1.03;;
11817;SDS011;5966;52.402;5.322;2023-01-16T08:35:07;1.87;;;1.17;;
11817;SDS011;5966;52.402;5.322;2023-01-16T08:37:35;1.70;;;1.43;;
11817;SDS011;5966;52.402;5.322;2023-01-16T08:40:04;1.70;;;1.40;;
11817;SDS011;5966;52.402;5.322;2023-01-16T08:42:33;2.17;;;1.27;;
11817;SDS011;5966;52.402;5.322;2023-01-16T08:45:18;2.87;;;1.50;;
11817;SDS011;5966;52.402;5.322;2023-01-16T08:48:04;2.53;;;1.50;;
11817;SDS011;5966;52.402;5.322;2023-01-16T08:50:51;1.90;;;1.30;;
11817;SDS011;5966;52.402;5.322;2023-01-16T08:53:51;1.77;;;1.20;;
11817;SDS011;5966;52.402;5.322;2023-01-16T08:56:21;1.93;;;1.20;;
11817;SDS011;5966;52.402;5.322;2023-01-16T08:58:49;3.30;;;1.23;;
11817;SDS011;5966;52.402;5.322;2023-01-16T09:01:17;2.77;;;1.20;;
11817;SDS011;5966;52.402;5.322;2023-01-16T09:03:45;2.17;;;1.53;;
11817;SDS011;5966;52.402;5.322;2023-01-16T09:06:15;1.70;;;1.40;;
11817;SDS011;5966;52.402;5.322;2023-01-16T09:08:43;2.50;;;1.60;;
11817;SDS011;5966;52.402;5.322;2023-01-16T09:11:11;3.27;;;1.70;;
11817;SDS011;5966;52.402;5.322;2023-01-16T09:13:56;2.70;;;1.67;;
11817;SDS011;5966;52.402;5.322;2023-01-16T09:16:26;2.47;;;1.63;;
11817;SDS011;5966;52.402;5.322;2023-01-16T09:18:54;1.50;;;1.30;;
11817;SDS011;5966;52.402;5.322;2023-01-16T09:21:24;2.07;;;1.47;;
11817;SDS011;5966;52.402;5.322;2023-01-16T09:23:52;1.40;;;1.30;;
11817;SDS011;5966;52.402;5.322;2023-01-16T09:26:20;1.63;;;1.40;;
11817;SDS011;5966;52.402;5.322;2023-01-16T09:28:48;1.57;;;1.30;;
11817;SDS011;5966;52.402;5.322;2023-01-16T09:31:16;2.33;;;1.67;;
11817;SDS011;5966;52.402;5.322;2023-01-16T09:33:45;2.17;;;1.43;;
11817;SDS011;5966;52.402;5.322;2023-01-16T09:36:14;2.30;;;1.57;;
11817;SDS011;5966;52.402;5.322;2023-01-16T09:38:44;1.93;;;1.27;;
11817;SDS011;5966;52.402;5.322;2023-01-16T09:41:13;4.57;;;1.67;;
11817;SDS011;5966;52.402;5.322;2023-01-16T09:44:04;3.93;;;1.37;;
11817;SDS011;5966;52.402;5.322;2023-01-16T09:46:35;1.60;;;1.27;;
11817;SDS011;5966;52.402;5.322;2023-01-16T09:49:09;1.97;;;1.57;;
11817;SDS011;5966;52.402;5.322;2023-01-16T09:51:45;2.17;;;1.60;;
11817;SDS011;5966;52.402;5.322;2023-01-16T09:54:35;3.63;;;1.40;;
11817;SDS011;5966;52.402;5.322;2023-01-16T09:57:26;2.43;;;1.60;;
11817;SDS011;5966;52.402;5.322;2023-01-16T10:00:13;1.40;;;1.30;;
11817;SDS011;5966;52.402;5.322;2023-01-16T10:02:44;1.73;;;1.57;;
11817;SDS011;5966;52.402;5.322;2023-01-16T10:05:13;3.40;;;1.50;;
11817;SDS011;5966;52.402;5.322;2023-01-16T10:07:48;1.80;;;1.40;;
11817;SDS011;5966;52.402;5.322;2023-01-16T10:10:35;2.97;;;1.30;;
11817;SDS011;5966;52.402;5.322;2023-01-16T10:13:18;2.37;;;1.40;;
11817;SDS011;5966;52.402;5.322;2023-01-16T10:15:55;1.57;;;1.47;;
11817;SDS011;5966;52.402;5.322;2023-01-16T10:18:32;1.50;;;1.37;;
11817;SDS011;5966;52.402;5.322;2023-01-16T10:24:16;2.00;;;1.40;;
11817;SDS011;5966;52.402;5.322;2023-01-16T10:26:55;2.73;;;1.50;;
11817;SDS011;5966;52.402;5.322;2023-01-16T10:29:25;1.40;;;1.20;;
11817;SDS011;5966;52.402;5.322;2023-01-16T10:31:58;1.53;;;1.43;;
11817;SDS011;5966;52.402;5.322;2023-01-16T10:34:33;1.93;;;1.50;;
11817;SDS011;5966;52.402;5.322;2023-01-16T10:37:05;1.57;;;1.40;;
11817;SDS011;5966;52.402;5.322;2023-01-16T10:39:33;1.73;;;1.33;;
11817;SDS011;5966;52.402;5.322;2023-01-16T10:42:12;2.60;;;1.10;;
11817;SDS011;5966;52.402;5.322;2023-01-16T10:45:12;1.97;;;1.57;;
11817;SDS011;5966;52.402;5.322;2023-01-16T10:47:58;1.17;;;1.07;;
11817;SDS011;5966;52.402;5.322;2023-01-16T10:50:44;2.20;;;1.50;;
11817;SDS011;5966;52.402;5.322;2023-01-16T10:53:14;1.47;;;1.23;;
11817;SDS011;5966;52.402;5.322;2023-01-16T10:55:42;1.63;;;1.30;;
11817;SDS011;5966;52.402;5.322;2023-01-16T10:58:20;4.70;;;1.23;;
11817;SDS011;5966;52.402;5.322;2023-01-16T11:00:53;1.93;;;1.40;;
11817;SDS011;5966;52.402;5.322;2023-01-16T11:03:27;1.33;;;1.23;;
11817;SDS011;5966;52.402;5.322;2023-01-16T11:06:05;3.50;;;1.50;;
11817;SDS011;5966;52.402;5.322;2023-01-16T11:08:40;1.00;;;1.00;;
11817;SDS011;5966;52.402;5.322;2023-01-16T11:11:09;1.93;;;1.40;;
11817;SDS011;5966;52.402;5.322;2023-01-16T11:13:54;1.57;;;1.17;;
11817;SDS011;5966;52.402;5.322;2023-01-16T11:16:40;1.67;;;1.00;;
11817;SDS011;5966;52.402;5.322;2023-01-16T11:19:26;0.77;;;0.77;;
11817;SDS011;5966;52.402;5.322;2023-01-16T11:21:57;1.10;;;1.00;;
11817;SDS011;5966;52.402;5.322;2023-01-16T11:24:30;1.30;;;1.10;;
11817;SDS011;5966;52.402;5.322;2023-01-16T11:27:00;0.90;;;0.90;;
11817;SDS011;5966;52.402;5.322;2023-01-16T11:29:36;2.10;;;0.97;;
11817;SDS011;5966;52.402;5.322;2023-01-16T11:32:06;2.13;;;0.70;;
11817;SDS011;5966;52.402;5.322;2023-01-16T11:34:37;1.87;;;0.80;;
11817;SDS011;5966;52.402;5.322;2023-01-16T11:37:06;1.17;;;0.63;;
11817;SDS011;5966;52.402;5.322;2023-01-16T11:39:37;0.30;;;0.30;;
11817;SDS011;5966;52.402;5.322;2023-01-16T11:42:06;1.83;;;0.80;;
11817;SDS011;5966;52.402;5.322;2023-01-16T11:45:11;1.03;;;0.90;;
11817;SDS011;5966;52.402;5.322;2023-01-16T11:48:00;0.53;;;0.43;;
11817;SDS011;5966;52.402;5.322;2023-01-16T11:50:49;0.87;;;0.67;;
11817;SDS011;5966;52.402;5.322;2023-01-16T11:53:19;0.90;;;0.73;;
11817;SDS011;5966;52.402;5.322;2023-01-16T11:55:49;0.90;;;0.63;;
11817;SDS011;5966;52.402;5.322;2023-01-16T11:58:34;2.57;;;0.70;;
11817;SDS011;5966;52.402;5.322;2023-01-16T12:01:11;0.93;;;0.80;;
11817;SDS011;5966;52.402;5.322;2023-01-16T12:03:47;1.07;;;0.70;;
11817;SDS011;5966;52.402;5.322;2023-01-16T12:06:28;1.03;;;0.57;;
11817;SDS011;5966;52.402;5.322;2023-01-16T12:09:09;1.40;;;0.80;;
11817;SDS011;5966;52.402;5.322;2023-01-16T12:11:51;1.47;;;0.70;;
11817;SDS011;5966;52.402;5.322;2023-01-16T12:14:49;0.83;;;0.73;;
11817;SDS011;5966;52.402;5.322;2023-01-16T12:17:25;1.17;;;0.80;;
11817;SDS011;5966;52.402;5.322;2023-01-16T12:20:16;0.97;;;0.70;;
11817;SDS011;5966;52.402;5.322;2023-01-16T12:23:01;0.63;;;0.60;;
11817;SDS011;5966;52.402;5.322;2023-01-16T12:25:53;1.00;;;1.00;;
11817;SDS011;5966;52.402;5.322;2023-01-16T12:28:30;0.70;;;0.70;;
11817;SDS011;5966;52.402;5.322;2023-01-16T12:31:07;1.27;;;1.00;;
11817;SDS011;5966;52.402;5.322;2023-01-16T12:34:00;2.03;;;1.13;;
11817;SDS011;5966;52.402;5.322;2023-01-16T12:36:43;1.40;;;0.80;;
11817;SDS011;5966;52.402;5.322;2023-01-16T12:39:26;0.93;;;0.93;;
11817;SDS011;5966;52.402;5.322;2023-01-16T12:42:03;1.30;;;1.00;;
11817;SDS011;5966;52.402;5.322;2023-01-16T12:44:59;0.90;;;0.90;;
11817;SDS011;5966;52.402;5.322;2023-01-16T12:47:40;0.73;;;0.60;;
11817;SDS011;5966;52.402;5.322;2023-01-16T12:50:22;0.80;;;0.80;;
11817;SDS011;5966;52.402;5.322;2023-01-16T12:53:16;1.47;;;0.90;;
11817;SDS011;5966;52.402;5.322;2023-01-16T12:55:55;0.80;;;0.80;;
11817;SDS011;5966;52.402;5.322;2023-01-16T12:58:33;0.90;;;0.87;;
11817;SDS011;5966;52.402;5.322;2023-01-16T13:01:08;2.53;;;1.20;;
11817;SDS011;5966;52.402;5.322;2023-01-16T13:03:41;2.27;;;0.97;;
11817;SDS011;5966;52.402;5.322;2023-01-16T13:06:17;1.27;;;0.87;;
11817;SDS011;5966;52.402;5.322;2023-01-16T13:08:50;1.03;;;0.90;;
11817;SDS011;5966;52.402;5.322;2023-01-16T13:11:26;3.27;;;1.10;;
11817;SDS011;5966;52.402;5.322;2023-01-16T13:14:30;1.97;;;1.03;;
11817;SDS011;5966;52.402;5.322;2023-01-16T13:17:00;1.23;;;1.13;;
11817;SDS011;5966;52.402;5.322;2023-01-16T13:19:34;2.10;;;1.17;;
11817;SDS011;5966;52.402;5.322;2023-01-16T13:22:10;1.13;;;0.93;;
11817;SDS011;5966;52.402;5.322;2023-01-16T13:24:53;1.07;;;0.93;;
11817;SDS011;5966;52.402;5.322;2023-01-16T13:27:25;1.80;;;1.30;;
11817;SDS011;5966;52.402;5.322;2023-01-16T13:30:05;1.77;;;1.40;;
11817;SDS011;5966;52.402;5.322;2023-01-16T13:32:38;1.23;;;1.10;;
11817;SDS011;5966;52.402;5.322;2023-01-16T13:35:13;1.33;;;0.90;;
11817;SDS011;5966;52.402;5.322;2023-01-16T13:38:04;1.07;;;1.07;;
11817;SDS011;5966;52.402;5.322;2023-01-16T13:41:05;1.23;;;0.90;;
11817;SDS011;5966;52.402;5.322;2023-01-16T13:43:42;2.83;;;0.90;;
11817;SDS011;5966;52.402;5.322;2023-01-16T13:46:31;1.77;;;1.03;;
11817;SDS011;5966;52.402;5.322;2023-01-16T13:49:02;0.80;;;0.70;;
11817;SDS011;5966;52.402;5.322;2023-01-16T13:51:31;6.47;;;1.20;;
11817;SDS011;5966;52.402;5.322;2023-01-16T13:54:12;1.17;;;1.07;;
11817;SDS011;5966;52.402;5.322;2023-01-16T13:56:43;1.73;;;1.20;;
11817;SDS011;5966;52.402;5.322;2023-01-16T13:59:33;0.80;;;0.80;;
11817;SDS011;5966;52.402;5.322;2023-01-16T14:02:23;2.30;;;0.80;;
11817;SDS011;5966;52.402;5.322;2023-01-16T14:07:52;2.03;;;0.87;;
11817;SDS011;5966;52.402;5.322;2023-01-16T14:11:15;0.90;;;0.90;;
11817;SDS011;5966;52.402;5.322;2023-01-16T14:17:20;1.00;;;0.70;;
11817;SDS011;5966;52.402;5.322;2023-01-16T14:19:57;0.93;;;0.73;;
11817;SDS011;5966;52.402;5.322;2023-01-16T14:22:32;1.07;;;0.77;;
11817;SDS011;5966;52.402;5.322;2023-01-16T14:25:20;1.80;;;0.77;;
11817;SDS011;5966;52.402;5.322;2023-01-16T14:27:54;1.63;;;0.80;;
11817;SDS011;5966;52.402;5.322;2023-01-16T14:30:24;1.40;;;0.60;;
11817;SDS011;5966;52.402;5.322;2023-01-16T14:32:57;0.73;;;0.73;;
11817;SDS011;5966;52.402;5.322;2023-01-16T14:35:27;1.33;;;0.70;;
11817;SDS011;5966;52.402;5.322;2023-01-16T14:37:59;1.47;;;0.90;;
11817;SDS011;5966;52.402;5.322;2023-01-16T14:40:30;0.97;;;0.53;;
11817;SDS011;5966;52.402;5.322;2023-01-16T14:43:26;1.07;;;0.87;;
11817;SDS011;5966;52.402;5.322;2023-01-16T14:46:23;3.23;;;1.23;;
11817;SDS011;5966;52.402;5.322;2023-01-16T14:55:40;0.50;;;0.50;;
11817;SDS011;5966;52.402;5.322;2023-01-16T14:58:16;0.87;;;0.73;;
11817;SDS011;5966;52.402;5.322;2023-01-16T15:00:52;0.70;;;0.70;;
11817;SDS011;5966;52.402;5.322;2023-01-16T15:03:44;1.00;;;0.97;;
11817;SDS011;5966;52.402;5.322;2023-01-16T15:06:13;1.00;;;1.00;;
11817;SDS011;5966;52.402;5.322;2023-01-16T15:08:41;1.47;;;1.10;;
11817;SDS011;5966;52.402;5.322;2023-01-16T15:11:12;3.80;;;1.10;;
11817;SDS011;5966;52.402;5.322;2023-01-16T15:17:05;0.60;;;0.50;;
11817;SDS011;5966;52.402;5.322;2023-01-16T15:20:14;1.30;;;1.00;;
11817;SDS011;5966;52.402;5.322;2023-01-16T15:23:02;2.53;;;0.97;;
11817;SDS011;5966;52.402;5.322;2023-01-16T15:25:46;1.73;;;1.10;;
11817;SDS011;5966;52.402;5.322;2023-01-16T15:28:35;2.10;;;1.10;;
11817;SDS011;5966;52.402;5.322;2023-01-16T15:31:13;1.97;;;1.30;;
11817;SDS011;5966;52.402;5.322;2023-01-16T15:33:44;1.20;;;1.00;;
11817;SDS011;5966;52.402;5.322;2023-01-16T15:36:15;1.90;;;1.03;;
11817;SDS011;5966;52.402;5.322;2023-01-16T15:38:46;1.80;;;1.70;;
11817;SDS011;5966;52.402;5.322;2023-01-16T15:41:18;2.20;;;1.53;;
11817;SDS011;5966;52.402;5.322;2023-01-16T15:44:09;2.23;;;1.93;;
11817;SDS011;5966;52.402;5.322;2023-01-16T15:49:58;1.60;;;1.50;;
11817;SDS011;5966;52.402;5.322;2023-01-16T15:52:33;2.50;;;2.23;;
11817;SDS011;5966;52.402;5.322;2023-01-16T15:55:09;5.67;;;4.77;;
11817;SDS011;5966;52.402;5.322;2023-01-16T15:57:44;6.17;;;4.17;;
11817;SDS011;5966;52.402;5.322;2023-01-16T16:00:21;9.47;;;5.97;;
11817;SDS011;5966;52.402;5.322;2023-01-16T16:02:58;8.10;;;6.23;;
11817;SDS011;5966;52.402;5.322;2023-01-16T16:05:30;3.10;;;2.80;;
11817;SDS011;5966;52.402;5.322;2023-01-16T16:07:59;3.93;;;2.30;;